Garland, Kansas
Current Conditions -  °F | °C
As of 9:55 PM on Saturday 20 Dec 2014 (Local Time) from KPTS Reporting Station
Overcast Overcast  
Wind Chill: 38°   Ceiling: 2200
Heat Index: 42°   Visibility: 10mi
Dew Point: 37°   Wind: 7mph
Humidity: 82%   Direction: 200°SSW
Pressure: 30.17"   Gusts: NA
Location:  37.7318°N, 94.6228°W
Report Text: KPTS 210355Z AUTO 20006KT 10SM OVC022 06/03 A3017 RMK AO2 T00580030
Loading
Personal Weather Stations






























Interactive Weather Map New forecast layout! Learn more

10-Day Weather Forecast

Advertisements
Track Severe Weather on mobile